Alexandria, Kentucky
Current Conditions -  °F | °C
As of 2:53 AM on Friday 21 Nov 2014 (Local Time) from KLUK Reporting Station
Clear Clear  
Wind Chill: 19°   Ceiling: Unl
Heat Index: 25°   Visibility: 10mi
Dew Point: 13°   Wind: 5mph
Humidity: 60%   Direction: 310°NW
Pressure: 30.38"   Gusts: NA
Location:  38.96°N, 84.4°W
Report Text: KLUK 210753Z AUTO 31004KT 10SM CLR M04/M11 A3038 RMK AO2 SLP293 T10391106
Loading
Personal Weather Stations






























Interactive Weather Map New forecast layout! Learn more

10-Day Weather Forecast

Advertisements
Track Severe Weather on mobile